Time;durP1;ratioP1;P1;durP2;ratioP2;P2;SDS_P1;SDS_P2;PMS_P1;PMS_P2;Temp;Humidity;BMP_temperature;BMP_pressure;BME280_temperature;BME280_humidity;BME280_pressure;Samples;Min_cycle;Max_cycle;Signal;HPM_P1;HPM_P2
2021/12/23 00:01:44;;;;;;;77.85;40.13;;;0.00;82.90;;;;;;5034682;28;20052;-81
2021/12/23 00:04:12;;;;;;;75.68;37.33;;;0.00;82.90;;;;;;5034972;28;20054;-81
2021/12/23 00:06:41;;;;;;;82.95;37.55;;;0.00;83.00;;;;;;5035079;28;20045;-81
2021/12/23 00:09:08;;;;;;;83.30;39.45;;;0.00;83.00;;;;;;5035067;28;20141;-80
2021/12/23 00:11:36;;;;;;;77.30;38.28;;;0.00;83.00;;;;;;5032130;28;20490;-81
2021/12/23 00:14:07;;;;;;;77.90;37.42;;;0.00;83.00;;;;;;5034620;28;20052;-81
2021/12/23 00:17:18;;;;;;;82.50;39.05;;;0.00;83.00;;;;;;5034820;28;20046;-80
2021/12/23 00:24:41;;;;;;;81.95;37.65;;;0.10;83.10;;;;;;5021390;28;20045;-81
2021/12/23 00:27:10;;;;;;;75.35;38.03;;;0.00;83.10;;;;;;5034756;28;20055;-81
2021/12/23 00:29:39;;;;;;;85.30;39.50;;;0.00;83.10;;;;;;5033627;28;20045;-80
2021/12/23 00:32:08;;;;;;;71.25;37.22;;;0.00;83.10;;;;;;5033305;28;20052;-81
2021/12/23 00:34:37;;;;;;;70.97;37.55;;;0.10;83.10;;;;;;5034442;28;20134;-81
2021/12/23 00:37:08;;;;;;;77.57;38.50;;;0.10;83.20;;;;;;5034361;28;20529;-81
2021/12/23 00:39:35;;;;;;;77.25;37.75;;;0.10;83.20;;;;;;5034515;28;20445;-81
2021/12/23 00:42:07;;;;;;;77.97;38.50;;;0.10;83.20;;;;;;5033571;28;20170;-82
2021/12/23 00:44:36;;;;;;;72.53;36.28;;;0.10;83.20;;;;;;5035367;28;20053;-82
2021/12/23 00:47:03;;;;;;;73.35;38.00;;;0.20;83.20;;;;;;5034140;28;20525;-82
2021/12/23 00:49:31;;;;;;;73.78;38.25;;;0.20;83.30;;;;;;5034254;28;20056;-81
2021/12/23 00:51:59;;;;;;;79.03;39.22;;;0.20;83.30;;;;;;5034223;28;20042;-81
2021/12/23 00:54:26;;;;;;;75.95;39.05;;;0.20;83.30;;;;;;5034318;28;20055;-81
2021/12/23 00:56:53;;;;;;;72.85;38.15;;;0.20;83.30;;;;;;5033481;28;20056;-81
2021/12/23 00:59:19;;;;;;;77.60;38.63;;;0.20;83.30;;;;;;5035158;28;20510;-81
2021/12/23 01:01:47;;;;;;;74.90;38.15;;;0.20;83.30;;;;;;5033951;28;20045;-81
2021/12/23 01:04:15;;;;;;;72.10;40.55;;;0.20;83.30;;;;;;5033663;28;20061;-81
2021/12/23 01:06:43;;;;;;;72.95;38.60;;;0.30;83.30;;;;;;5034037;28;20042;-82
2021/12/23 01:09:10;;;;;;;74.22;38.03;;;0.20;83.30;;;;;;5033899;28;20426;-82
2021/12/23 01:11:37;;;;;;;76.63;38.85;;;0.30;83.30;;;;;;5032943;28;20045;-82
2021/12/23 01:19:27;;;;;;;72.50;37.40;;;0.30;83.30;;;;;;5033706;28;20045;-81
2021/12/23 01:21:54;;;;;;;78.63;40.08;;;0.30;83.30;;;;;;5033726;28;20045;-81
2021/12/23 01:24:23;;;;;;;71.68;38.83;;;0.30;83.30;;;;;;5032529;28;20061;-81
2021/12/23 01:26:50;;;;;;;67.07;38.10;;;0.30;83.30;;;;;;5028253;28;20616;-81
2021/12/23 01:29:17;;;;;;;67.18;38.35;;;0.30;83.30;;;;;;5033495;28;20060;-81
2021/12/23 01:31:45;;;;;;;70.32;36.38;;;0.30;83.30;;;;;;5033346;28;20048;-81
2021/12/23 01:34:12;;;;;;;75.90;38.22;;;0.30;83.30;;;;;;5033063;28;20168;-81
2021/12/23 01:36:39;;;;;;;74.82;38.97;;;0.30;83.30;;;;;;5033543;28;20049;-81
2021/12/23 01:39:06;;;;;;;71.13;37.75;;;0.30;83.30;;;;;;5033225;28;20524;-81
2021/12/23 01:41:33;;;;;;;65.28;36.95;;;0.40;83.30;;;;;;5032082;28;20056;-81
2021/12/23 01:44:00;;;;;;;69.00;38.83;;;0.40;83.30;;;;;;5033246;28;20045;-81
2021/12/23 01:46:27;;;;;;;71.00;36.53;;;0.30;83.20;;;;;;5033277;28;20041;-81
2021/12/23 01:48:54;;;;;;;70.32;37.70;;;0.30;83.20;;;;;;5033174;28;20078;-81
2021/12/23 01:51:22;;;;;;;71.10;37.50;;;0.30;83.20;;;;;;5033408;28;20047;-81
2021/12/23 01:53:49;;;;;;;67.75;37.55;;;0.30;83.20;;;;;;5032517;28;20054;-81
2021/12/23 01:56:17;;;;;;;71.65;38.45;;;0.40;83.20;;;;;;5032790;28;20041;-81
2021/12/23 01:58:45;;;;;;;74.32;38.33;;;0.40;83.20;;;;;;5033259;28;20413;-81
2021/12/23 02:01:13;;;;;;;73.35;38.55;;;0.40;83.20;;;;;;5032949;28;20050;-81
2021/12/23 02:03:40;;;;;;;72.97;38.35;;;0.30;83.20;;;;;;5032961;28;20131;-81
2021/12/23 02:06:08;;;;;;;70.38;38.97;;;0.30;83.20;;;;;;5033146;28;20041;-81
2021/12/23 02:08:36;;;;;;;77.18;38.22;;;0.40;83.20;;;;;;5030154;28;20135;-81
2021/12/23 02:11:07;;;;;;;70.97;38.05;;;0.40;83.20;;;;;;5032563;28;20041;-81
2021/12/23 02:13:35;;;;;;;72.40;38.08;;;0.30;83.20;;;;;;5032877;28;20045;-81
2021/12/23 02:16:04;;;;;;;72.65;38.25;;;0.30;83.20;;;;;;5032970;28;20041;-82
2021/12/23 02:18:31;;;;;;;72.55;38.05;;;0.30;83.20;;;;;;5033116;28;20045;-81
2021/12/23 02:20:58;;;;;;;71.38;36.88;;;0.30;83.20;;;;;;5030851;28;20050;-81
2021/12/23 02:23:26;;;;;;;68.22;36.85;;;0.30;83.20;;;;;;5033161;28;20426;-81
2021/12/23 02:25:53;;;;;;;76.43;38.58;;;0.30;83.20;;;;;;5032585;28;20041;-81
2021/12/23 02:28:22;;;;;;;70.03;38.85;;;0.30;83.20;;;;;;5032773;28;20118;-81
2021/12/23 02:30:51;;;;;;;67.10;37.53;;;0.30;83.20;;;;;;5032934;28;20042;-81
2021/12/23 02:33:21;;;;;;;70.00;37.58;;;0.30;83.20;;;;;;5033030;28;20068;-81
2021/12/23 02:35:49;;;;;;;68.88;37.88;;;0.30;83.20;;;;;;5032026;28;20050;-81
2021/12/23 02:38:17;;;;;;;71.00;39.08;;;0.40;83.20;;;;;;5032805;28;20050;-81
2021/12/23 02:40:44;;;;;;;75.35;38.95;;;0.30;83.20;;;;;;5032321;28;20041;-81
2021/12/23 02:43:14;;;;;;;69.93;39.55;;;0.30;83.10;;;;;;5032682;28;20046;-81
2021/12/23 02:45:44;;;;;;;71.70;39.50;;;0.30;83.10;;;;;;5032823;28;20042;-81
2021/12/23 02:48:17;;;;;;;79.40;40.42;;;0.30;83.10;;;;;;5036361;28;20528;-81
2021/12/23 02:50:46;;;;;;;77.90;40.10;;;0.30;83.10;;;;;;5035730;28;20053;-81
2021/12/23 02:53:13;;;;;;;72.00;38.92;;;0.30;83.10;;;;;;5036423;28;20050;-81
2021/12/23 02:55:40;;;;;;;81.43;41.40;;;0.30;83.10;;;;;;5035917;28;20049;-82
2021/12/23 02:58:09;;;;;;;67.88;38.75;;;0.20;83.10;;;;;;5036434;28;20052;-81
2021/12/23 03:00:38;;;;;;;70.85;39.72;;;0.30;83.10;;;;;;5036178;28;20081;-81
2021/12/23 03:03:06;;;;;;;74.80;39.15;;;0.30;83.10;;;;;;5035943;28;20060;-81
2021/12/23 03:05:33;;;;;;;74.70;40.17;;;0.20;83.10;;;;;;5033412;28;20073;-82
2021/12/23 03:08:01;;;;;;;70.03;40.38;;;0.30;83.10;;;;;;5035622;28;20513;-81
2021/12/23 03:10:28;;;;;;;66.78;37.40;;;0.20;83.10;;;;;;5036042;28;20052;-81
2021/12/23 03:12:55;;;;;;;70.82;39.47;;;0.20;83.10;;;;;;5036171;28;20063;-81
2021/12/23 03:15:22;;;;;;;71.55;39.72;;;0.20;83.10;;;;;;5020623;28;20318;-81
2021/12/23 03:17:49;;;;;;;69.70;39.63;;;0.20;83.10;;;;;;5031125;28;20438;-81
2021/12/23 03:20:17;;;;;;;77.03;39.05;;;0.20;83.10;;;;;;5035896;28;20053;-81
2021/12/23 03:22:44;;;;;;;79.53;40.42;;;0.20;83.10;;;;;;5035550;28;20045;-81
2021/12/23 03:25:11;;;;;;;79.60;40.03;;;0.20;83.10;;;;;;5035744;28;20528;-82
2021/12/23 03:27:38;;;;;;;70.55;38.15;;;0.20;83.10;;;;;;5035919;28;20045;-81
2021/12/23 03:30:07;;;;;;;74.18;37.30;;;0.20;83.20;;;;;;5035730;28;20060;-81
2021/12/23 03:32:34;;;;;;;70.18;37.65;;;0.20;83.20;;;;;;5032779;28;20057;-81
2021/12/23 03:35:01;;;;;;;69.78;38.30;;;0.20;83.20;;;;;;5035625;28;20045;-81
2021/12/23 03:37:28;;;;;;;69.03;38.90;;;0.20;83.20;;;;;;5035269;28;20577;-81
2021/12/23 03:39:55;;;;;;;68.78;37.33;;;0.20;83.20;;;;;;5035546;28;20516;-82
2021/12/23 03:42:22;;;;;;;71.38;38.10;;;0.20;83.20;;;;;;5019800;28;20045;-81
2021/12/23 03:44:49;;;;;;;72.63;39.95;;;0.20;83.20;;;;;;5030637;28;20053;-81
2021/12/23 03:47:16;;;;;;;70.30;39.38;;;0.20;83.20;;;;;;5035461;28;20041;-81
2021/12/23 03:49:43;;;;;;;71.22;40.35;;;0.20;83.20;;;;;;5035256;28;20056;-81
2021/12/23 03:52:10;;;;;;;69.63;38.53;;;0.20;83.20;;;;;;5035118;28;20418;-81
2021/12/23 03:54:37;;;;;;;67.72;37.03;;;0.20;83.20;;;;;;5035401;28;20045;-81
2021/12/23 03:57:05;;;;;;;70.80;38.42;;;0.20;83.20;;;;;;5034738;28;20048;-81
2021/12/23 03:59:32;;;;;;;68.40;37.38;;;0.20;83.20;;;;;;5034499;28;20049;-81
2021/12/23 04:01:59;;;;;;;72.00;38.50;;;0.20;83.30;;;;;;5035317;28;20045;-82
2021/12/23 04:04:27;;;;;;;72.63;38.05;;;0.20;83.20;;;;;;5034988;28;20053;-81
2021/12/23 04:06:54;;;;;;;72.80;41.33;;;0.20;83.30;;;;;;5034858;28;20076;-81
2021/12/23 04:09:21;;;;;;;68.30;37.78;;;0.20;83.20;;;;;;5035094;28;20045;-81
2021/12/23 04:11:48;;;;;;;71.18;37.13;;;0.20;83.30;;;;;;5034227;28;20049;-81
2021/12/23 04:14:15;;;;;;;71.55;37.83;;;0.20;83.30;;;;;;5034906;28;20054;-81
2021/12/23 04:16:42;;;;;;;69.63;37.40;;;0.20;83.30;;;;;;5034922;28;20051;-81
2021/12/23 04:19:11;;;;;;;68.75;38.25;;;0.20;83.30;;;;;;5034702;28;20425;-81
2021/12/23 04:21:39;;;;;;;73.07;38.00;;;0.20;83.30;;;;;;5034551;28;20045;-81
2021/12/23 04:24:07;;;;;;;75.30;39.80;;;0.20;83.30;;;;;;5034706;28;20057;-81
2021/12/23 04:26:36;;;;;;;68.15;38.03;;;0.20;83.30;;;;;;5031982;28;20051;-81
2021/12/23 04:29:05;;;;;;;67.90;39.00;;;0.20;83.30;;;;;;5034481;28;20053;-81
2021/12/23 04:31:33;;;;;;;72.63;37.72;;;0.20;83.30;;;;;;5034679;28;20119;-81
2021/12/23 04:34:01;;;;;;;62.55;37.38;;;0.20;83.30;;;;;;5034609;28;20050;-82
2021/12/23 04:36:29;;;;;;;77.68;39.05;;;0.20;83.30;;;;;;5034204;28;20048;-81
2021/12/23 04:39:00;;;;;;;71.10;37.28;;;0.20;83.30;;;;;;5033852;28;20053;-81
2021/12/23 04:41:28;;;;;;;66.22;36.03;;;0.20;83.30;;;;;;5034652;28;20045;-81
2021/12/23 04:43:55;;;;;;;70.50;36.95;;;0.20;83.30;;;;;;5034377;28;20067;-81
2021/12/23 04:46:22;;;;;;;78.05;39.22;;;0.20;83.30;;;;;;5034280;28;20494;-81
2021/12/23 04:48:50;;;;;;;64.40;36.22;;;0.30;83.30;;;;;;5066134;28;20041;-81
2021/12/23 04:51:19;;;;;;;72.25;40.17;;;0.30;83.30;;;;;;5034055;28;20045;-81
2021/12/23 04:53:46;;;;;;;68.22;37.58;;;0.30;83.30;;;;;;5033450;28;20045;-81
2021/12/23 04:56:14;;;;;;;71.78;39.05;;;0.30;83.30;;;;;;5034202;28;20050;-81
2021/12/23 04:58:41;;;;;;;64.03;36.88;;;0.30;83.30;;;;;;5033978;28;20546;-81
2021/12/23 05:01:19;;;;;;;63.17;36.63;;;0.30;83.30;;;;;;5033962;28;20043;-81
2021/12/23 05:03:47;;;;;;;70.72;37.90;;;0.30;83.30;;;;;;5033983;28;20125;-81
2021/12/23 05:06:16;;;;;;;60.08;34.85;;;0.30;83.30;;;;;;5034060;28;20091;-81
2021/12/23 05:08:43;;;;;;;68.60;38.38;;;0.30;83.30;;;;;;5032505;28;20136;-81
2021/12/23 05:11:11;;;;;;;68.50;37.20;;;0.30;83.30;;;;;;5033713;28;20042;-81
2021/12/23 05:13:38;;;;;;;66.70;36.83;;;0.30;83.30;;;;;;5033734;28;20514;-81
2021/12/23 05:16:05;;;;;;;66.68;36.70;;;0.30;83.30;;;;;;5033855;28;20045;-81
2021/12/23 05:18:33;;;;;;;67.47;37.25;;;0.30;83.30;;;;;;5033517;28;20521;-81
2021/12/23 05:21:02;;;;;;;70.07;38.05;;;0.30;83.30;;;;;;5032834;28;20045;-80
2021/12/23 05:23:29;;;;;;;65.88;36.55;;;0.30;83.20;;;;;;5034541;28;20136;-81
2021/12/23 05:25:56;;;;;;;63.88;36.88;;;0.30;83.30;;;;;;5033566;28;20514;-81
2021/12/23 05:28:24;;;;;;;64.03;36.47;;;0.30;83.30;;;;;;5033369;28;20045;-81
2021/12/23 05:30:51;;;;;;;66.80;37.33;;;0.30;83.30;;;;;;5033565;28;20046;-81
2021/12/23 05:33:18;;;;;;;68.05;37.22;;;0.30;83.30;;;;;;5033147;28;20505;-81
2021/12/23 05:35:45;;;;;;;65.50;36.92;;;0.30;83.30;;;;;;5032715;28;20486;-81
2021/12/23 05:38:12;;;;;;;70.35;37.10;;;0.40;83.20;;;;;;5033252;28;20042;-81
2021/12/23 05:40:39;;;;;;;67.60;36.15;;;0.40;83.20;;;;;;5033316;28;20048;-81
2021/12/23 05:43:06;;;;;;;65.82;36.55;;;0.40;83.20;;;;;;5033294;28;20045;-83
2021/12/23 05:45:33;;;;;;;75.90;38.30;;;0.30;83.20;;;;;;5033415;28;20045;-82
2021/12/23 05:48:00;;;;;;;72.43;38.40;;;0.40;83.20;;;;;;5032213;28;20049;-81
2021/12/23 05:50:27;;;;;;;70.35;36.72;;;0.40;83.20;;;;;;5032939;28;20049;-81
2021/12/23 05:52:55;;;;;;;71.28;37.78;;;0.40;83.20;;;;;;5033158;28;20052;-81
2021/12/23 05:55:22;;;;;;;66.22;36.47;;;0.40;83.20;;;;;;5033211;28;20045;-81
2021/12/23 05:57:50;;;;;;;66.68;36.97;;;0.40;83.20;;;;;;5033302;28;20053;-81
2021/12/23 06:00:28;;;;;;;70.13;36.85;;;0.40;83.20;;;;;;5033195;28;20045;-81
2021/12/23 06:02:56;;;;;;;65.13;36.47;;;0.40;83.20;;;;;;5031991;28;20417;-81
2021/12/23 06:05:24;;;;;;;68.53;35.60;;;0.40;83.20;;;;;;5033000;28;20072;-81
2021/12/23 06:07:51;;;;;;;64.57;36.70;;;0.40;83.30;;;;;;5033007;28;20038;-80
2021/12/23 06:10:18;;;;;;;68.10;35.47;;;0.40;83.30;;;;;;5032960;28;20049;-81
2021/12/23 06:12:45;;;;;;;62.70;35.40;;;0.40;83.20;;;;;;5033173;28;20049;-81
2021/12/23 06:15:14;;;;;;;63.08;36.40;;;0.40;83.30;;;;;;5032972;28;20144;-81
2021/12/23 06:17:41;;;;;;;64.15;34.97;;;0.40;83.30;;;;;;5031922;28;20056;-81
2021/12/23 06:20:09;;;;;;;73.43;36.38;;;0.50;83.30;;;;;;5032186;28;20046;-81
2021/12/23 06:22:37;;;;;;;63.00;34.75;;;0.50;83.30;;;;;;5037100;28;20046;-81
2021/12/23 06:25:07;;;;;;;65.88;35.60;;;0.50;83.30;;;;;;5036957;28;20519;-81
2021/12/23 06:27:35;;;;;;;66.32;35.83;;;0.50;83.30;;;;;;5037127;28;20042;-81
2021/12/23 06:30:12;;;;;;;70.28;37.35;;;0.50;83.30;;;;;;5036214;28;20050;-81
2021/12/23 06:32:39;;;;;;;61.85;35.08;;;0.50;83.30;;;;;;5034314;28;20052;-81
2021/12/23 06:35:07;;;;;;;65.22;35.47;;;0.50;83.30;;;;;;5036805;28;20049;-81
2021/12/23 06:37:34;;;;;;;60.47;36.72;;;0.50;83.30;;;;;;5036781;28;20041;-81
2021/12/23 06:40:02;;;;;;;60.38;35.55;;;0.60;83.30;;;;;;5036768;28;20056;-81
2021/12/23 06:42:30;;;;;;;62.05;34.08;;;0.60;83.30;;;;;;5036791;28;20037;-80
2021/12/23 06:44:57;;;;;;;66.95;34.42;;;0.60;83.20;;;;;;5035779;28;20068;-80
2021/12/23 06:47:24;;;;;;;59.83;33.67;;;0.60;83.20;;;;;;5036446;28;20490;-81
2021/12/23 06:49:51;;;;;;;58.72;33.63;;;0.60;83.20;;;;;;5036327;28;20053;-80
2021/12/23 06:52:18;;;;;;;58.38;34.88;;;0.60;83.20;;;;;;5036325;28;20048;-81
2021/12/23 06:54:52;;;;;;;57.30;34.40;;;0.60;83.20;;;;;;5032129;28;20060;-81
2021/12/23 06:57:20;;;;;;;;;;;0.70;83.20;;;;;;5036093;28;20509;-80
2021/12/23 06:59:47;;;;;;;61.85;35.03;;;0.70;83.20;;;;;;5034685;28;19925;-81
2021/12/23 07:02:14;;;;;;;65.65;35.75;;;0.70;83.20;;;;;;5035626;28;20053;-81
2021/12/23 07:04:43;;;;;;;65.05;37.00;;;0.70;83.20;;;;;;5035910;28;20140;-81
2021/12/23 07:07:19;;;;;;;62.88;34.90;;;0.70;83.20;;;;;;5035589;28;20046;-80
2021/12/23 07:09:46;;;;;;;56.35;34.05;;;0.70;83.20;;;;;;5035959;28;20051;-81
2021/12/23 07:12:13;;;;;;;59.20;32.88;;;0.70;83.10;;;;;;5035791;28;20063;-80
2021/12/23 07:14:41;;;;;;;58.78;33.22;;;0.70;83.10;;;;;;5034395;28;20395;-81
2021/12/23 07:17:08;;;;;;;60.05;33.92;;;0.70;83.10;;;;;;5035641;28;20048;-80
2021/12/23 07:19:36;;;;;;;61.90;33.53;;;0.70;83.10;;;;;;5035687;28;20525;-82
2021/12/23 07:22:04;;;;;;;58.97;34.30;;;0.80;83.10;;;;;;5035119;28;20045;-83
2021/12/23 07:24:31;;;;;;;55.38;33.75;;;0.70;83.10;;;;;;5035802;28;20049;-82
2021/12/23 07:26:58;;;;;;;55.95;32.38;;;0.80;83.10;;;;;;5034760;28;20041;-81
2021/12/23 07:29:25;;;;;;;58.05;33.88;;;0.80;83.10;;;;;;5034940;28;20057;-81
2021/12/23 07:31:53;;;;;;;53.92;31.13;;;0.80;83.00;;;;;;5034768;28;20111;-81
2021/12/23 07:34:20;;;;;;;52.15;32.22;;;0.80;83.00;;;;;;5035336;28;20053;-82
2021/12/23 07:36:47;;;;;;;60.55;33.22;;;0.80;83.00;;;;;;5035345;28;20045;-81
2021/12/23 07:39:14;;;;;;;58.72;32.65;;;0.80;83.00;;;;;;5035536;28;20056;-81
2021/12/23 07:42:02;;;;;;;59.95;32.88;;;0.80;83.00;;;;;;5031813;28;20523;-81
2021/12/23 07:44:37;;;;;;;53.22;32.70;;;0.80;83.00;;;;;;5032039;28;20057;-81
2021/12/23 07:47:05;;;;;;;54.83;32.83;;;0.90;82.90;;;;;;5035248;28;20037;-81
2021/12/23 07:49:32;;;;;;;58.83;33.30;;;0.90;82.90;;;;;;5034785;28;20689;-81
2021/12/23 07:52:00;;;;;;;58.17;33.03;;;0.90;82.90;;;;;;5034848;28;20045;-80
2021/12/23 07:54:28;;;;;;;55.45;32.25;;;0.90;82.90;;;;;;5035265;28;20040;-80
2021/12/23 07:56:55;;;;;;;56.55;32.38;;;0.90;82.90;;;;;;5034244;28;20051;-80
2021/12/23 07:59:22;;;;;;;53.65;31.80;;;0.90;82.80;;;;;;5036032;28;20053;-80
2021/12/23 08:01:50;;;;;;;62.22;33.00;;;0.90;82.80;;;;;;5034858;28;20413;-81
2021/12/23 08:04:17;;;;;;;60.67;33.00;;;0.90;82.80;;;;;;5034906;28;20136;-81
2021/12/23 08:06:47;;;;;;;53.60;31.65;;;0.90;82.80;;;;;;5034780;28;20053;-81
2021/12/23 08:09:14;;;;;;;61.88;33.33;;;0.90;82.80;;;;;;5034854;28;20129;-80
2021/12/23 08:11:41;;;;;;;53.95;33.65;;;0.90;82.80;;;;;;5033729;28;20045;-81
2021/12/23 08:14:08;;;;;;;56.10;33.08;;;0.90;82.80;;;;;;5033846;28;20041;-81
2021/12/23 08:16:35;;;;;;;57.95;32.65;;;0.90;82.80;;;;;;5034641;28;20497;-81
2021/12/23 08:19:02;;;;;;;55.97;32.17;;;0.90;82.70;;;;;;5034609;28;20041;-80
2021/12/23 08:21:30;;;;;;;58.13;32.63;;;0.90;82.70;;;;;;5034301;28;20045;-81
2021/12/23 08:23:57;;;;;;;53.67;32.85;;;0.90;82.80;;;;;;5033750;28;20046;-80
2021/12/23 08:26:28;;;;;;;55.38;31.85;;;0.90;82.70;;;;;;5034484;28;20054;-80
2021/12/23 08:28:57;;;;;;;62.88;34.25;;;0.90;82.70;;;;;;5033784;28;20047;-81
2021/12/23 08:31:26;;;;;;;53.90;31.98;;;0.90;82.80;;;;;;5034270;28;20056;-82
2021/12/23 08:33:53;;;;;;;55.67;32.63;;;0.90;82.70;;;;;;5034308;28;20429;-82
2021/12/23 08:36:22;;;;;;;52.60;31.92;;;1.00;82.80;;;;;;5033928;28;20456;-82
2021/12/23 08:38:49;;;;;;;58.38;33.00;;;1.00;82.80;;;;;;5033452;28;20045;-82
2021/12/23 08:41:16;;;;;;;58.72;33.85;;;1.00;82.80;;;;;;5033688;28;20080;-81
2021/12/23 08:43:48;;;;;;;61.42;33.78;;;1.00;82.80;;;;;;5032593;28;20042;-81
2021/12/23 08:46:15;;;;;;;64.05;33.72;;;1.00;82.80;;;;;;5033927;28;20046;-80
2021/12/23 08:48:42;;;;;;;60.40;33.75;;;1.00;82.80;;;;;;5034072;28;20037;-81
2021/12/23 08:51:11;;;;;;;58.53;33.33;;;1.00;82.80;;;;;;5033353;28;20060;-80
2021/12/23 08:53:38;;;;;;;58.60;33.50;;;1.00;82.80;;;;;;5033071;28;20052;-81
2021/12/23 08:56:08;;;;;;;60.20;33.60;;;1.00;82.80;;;;;;5033512;28;20045;-80
2021/12/23 08:58:39;;;;;;;65.38;33.95;;;1.00;82.80;;;;;;5033588;28;20112;-81
2021/12/23 09:01:07;;;;;;;59.33;34.17;;;1.00;82.80;;;;;;5033743;28;20091;-80
2021/12/23 09:03:35;;;;;;;63.33;33.30;;;1.00;82.80;;;;;;5033482;28;20050;-80
2021/12/23 09:06:04;;;;;;;57.45;33.55;;;1.10;82.80;;;;;;5032592;28;20410;-81
2021/12/23 09:08:31;;;;;;;57.95;33.22;;;1.10;82.80;;;;;;5032862;28;20053;-80
2021/12/23 09:10:59;;;;;;;61.40;32.70;;;1.10;82.90;;;;;;5033109;28;20093;-81
2021/12/23 09:13:30;;;;;;;58.55;34.08;;;1.10;82.90;;;;;;5033321;28;20045;-80
2021/12/23 09:15:58;;;;;;;52.63;31.63;;;1.10;82.90;;;;;;5033679;28;20132;-81
2021/12/23 09:18:26;;;;;;;62.85;34.85;;;1.20;82.90;;;;;;5033673;28;20128;-81
2021/12/23 09:20:54;;;;;;;59.63;33.85;;;1.10;82.90;;;;;;5032439;28;20053;-80
2021/12/23 09:23:22;;;;;;;62.75;33.45;;;1.20;82.90;;;;;;5033318;28;20540;-81
2021/12/23 09:25:50;;;;;;;60.70;33.10;;;1.20;82.90;;;;;;5033017;28;20506;-80
2021/12/23 09:33:38;;;;;;;54.05;32.50;;;1.20;82.90;;;;;;5018973;28;20111;-81
2021/12/23 09:36:05;;;;;;;55.72;32.05;;;1.30;83.00;;;;;;5032868;28;20243;-80
2021/12/23 09:38:33;;;;;;;61.22;33.55;;;1.30;83.00;;;;;;5032195;28;20041;-81
2021/12/23 09:41:06;;;;;;;52.40;32.78;;;1.30;83.00;;;;;;5029425;28;20041;-80
2021/12/23 09:43:36;;;;;;;54.22;33.08;;;1.30;83.00;;;;;;5025243;28;20524;-81
2021/12/23 09:46:04;;;;;;;53.55;32.15;;;1.40;83.00;;;;;;5027263;28;20046;-80
2021/12/23 09:48:33;;;;;;;55.65;32.67;;;1.40;83.00;;;;;;5028029;28;20045;-81
2021/12/23 09:51:04;;;;;;;61.42;34.38;;;1.40;83.00;;;;;;5014880;28;20060;-81
2021/12/23 09:53:33;;;;;;;61.63;34.47;;;1.40;83.00;;;;;;5027567;28;20049;-80
2021/12/23 09:56:01;;;;;;;61.85;34.30;;;1.40;83.00;;;;;;5018565;28;20041;-80
2021/12/23 09:58:28;;;;;;;52.75;32.13;;;1.40;83.00;;;;;;5016894;28;20042;-80
2021/12/23 10:00:55;;;;;;;68.22;34.65;;;1.50;83.00;;;;;;5016456;28;20050;-80
2021/12/23 10:03:24;;;;;;;64.55;33.15;;;1.50;83.10;;;;;;5012465;28;20042;-80
2021/12/23 10:05:53;;;;;;;58.67;33.40;;;1.50;83.10;;;;;;5028284;28;20046;-81
2021/12/23 10:08:20;;;;;;;59.40;34.88;;;1.50;83.10;;;;;;5011487;28;20053;-81
2021/12/23 10:10:56;;;;;;;61.42;33.85;;;1.60;83.10;;;;;;5015962;28;20048;-80
2021/12/23 10:38:41;;;;;;;69.10;34.13;;;1.70;83.50;;;;;;5017296;28;20054;-80
2021/12/23 10:41:15;;;;;;;63.08;34.17;;;1.80;83.50;;;;;;5024461;28;20051;-80
2021/12/23 10:43:44;;;;;;;;;;;1.80;83.60;;;;;;5021723;28;20041;-80
2021/12/23 10:46:13;;;;;;;64.03;34.00;;;1.90;83.60;;;;;;5016338;28;19921;-80
2021/12/23 10:52:00;;;;;;;70.85;35.33;;;1.90;83.70;;;;;;5014683;28;20054;-81
2021/12/23 11:00:28;;;;;;;67.97;33.72;;;1.90;83.80;;;;;;5013613;28;20511;-80
2021/12/23 11:03:08;;;;;;;74.70;35.22;;;1.90;83.90;;;;;;5027319;28;20049;-80
2021/12/23 11:05:41;;;;;;;69.38;35.50;;;2.00;83.90;;;;;;4996540;28;20384;-80
2021/12/23 11:08:19;;;;;;;66.53;34.38;;;2.00;83.90;;;;;;4998090;28;20046;-80
2021/12/23 11:43:55;;;;;;;74.13;34.95;;;2.40;84.30;;;;;;5002958;28;20053;-81
2021/12/23 11:46:28;;;;;;;67.15;34.22;;;2.40;84.40;;;;;;5002421;28;20042;-80
2021/12/23 11:48:57;;;;;;;66.18;32.08;;;2.40;84.40;;;;;;5009824;28;20419;-81
2021/12/23 11:51:34;;;;;;;81.45;37.22;;;2.40;84.40;;;;;;4994867;28;20041;-80
2021/12/23 11:54:04;;;;;;;64.97;33.67;;;2.50;84.40;;;;;;5010034;28;20056;-81
2021/12/23 11:56:35;;;;;;;70.25;35.03;;;2.50;84.40;;;;;;5009087;28;20057;-80
2021/12/23 11:59:03;;;;;;;64.35;32.47;;;2.50;84.40;;;;;;4999765;28;20463;-81
2021/12/23 12:01:47;;;;;;;64.45;34.88;;;2.50;84.40;;;;;;5001028;28;20097;-80
2021/12/23 12:04:25;;;;;;;61.83;32.37;;;2.60;84.40;;;;;;5008663;28;20084;-80
2021/12/23 12:06:54;;;;;;;57.13;32.35;;;2.60;84.40;;;;;;5017906;28;20288;-81
2021/12/23 12:09:23;;;;;;;63.15;33.20;;;2.60;84.40;;;;;;5014161;28;20055;-80
2021/12/23 12:12:08;;;;;;;62.42;32.05;;;2.70;84.40;;;;;;5018254;28;20056;-80
2021/12/23 12:14:41;;;;;;;71.97;33.08;;;2.70;84.40;;;;;;5013970;28;20064;-81
2021/12/23 12:17:26;;;;;;;68.93;33.20;;;2.70;84.40;;;;;;5012461;28;20050;-80
2021/12/23 12:20:09;;;;;;;64.88;32.97;;;2.80;84.50;;;;;;5022194;28;20050;-80
2021/12/23 12:22:57;;;;;;;61.38;30.77;;;2.80;84.50;;;;;;5023910;28;20049;-81
2021/12/23 12:25:28;;;;;;;58.45;32.17;;;2.80;84.50;;;;;;5017921;28;20498;-80
2021/12/23 12:27:55;;;;;;;64.25;30.88;;;2.90;84.50;;;;;;5017862;28;20044;-81
2021/12/23 12:30:34;;;;;;;62.70;30.75;;;2.90;84.60;;;;;;5014090;28;20068;-81
2021/12/23 12:33:12;;;;;;;57.45;32.70;;;2.90;84.60;;;;;;5028899;28;20060;-80
2021/12/23 12:35:41;;;;;;;55.10;30.80;;;2.90;84.60;;;;;;5017671;28;20060;-81
2021/12/23 12:38:18;;;;;;;55.53;30.65;;;3.00;84.60;;;;;;5027585;28;20318;-81
2021/12/23 12:40:59;;;;;;;50.58;30.20;;;3.00;84.60;;;;;;5026077;28;20049;-80
2021/12/23 12:43:40;;;;;;;56.47;31.35;;;3.00;84.70;;;;;;5025288;28;20609;-80
2021/12/23 12:46:09;;;;;;;62.08;31.52;;;3.10;84.60;;;;;;5016376;28;20495;-80
2021/12/23 12:48:55;;;;;;;57.95;30.92;;;3.10;84.60;;;;;;5028376;28;20049;-80
2021/12/23 12:51:27;;;;;;;68.70;31.90;;;3.20;84.70;;;;;;5013413;28;20057;-81
2021/12/23 12:54:02;;;;;;;63.63;30.88;;;3.20;84.70;;;;;;5028513;28;20509;-80
2021/12/23 12:56:32;;;;;;;59.47;31.35;;;3.20;84.70;;;;;;5027971;28;20059;-80
2021/12/23 12:58:59;;;;;;;60.92;31.30;;;3.20;84.70;;;;;;5020365;28;20048;-79
2021/12/23 13:01:41;;;;;;;62.78;30.00;;;3.30;84.80;;;;;;5017076;28;20049;-81
2021/12/23 13:04:33;;;;;;;57.38;30.50;;;3.30;84.80;;;;;;5017231;28;20056;-80
2021/12/23 13:07:35;;;;;;;62.97;32.47;;;3.30;84.80;;;;;;5015045;28;20057;-80
2021/12/23 13:10:21;;;;;;;51.83;27.80;;;3.40;84.80;;;;;;5025458;28;20052;-81
2021/12/23 13:12:56;;;;;;;53.30;28.13;;;3.40;84.80;;;;;;5028707;28;20421;-81
2021/12/23 13:15:30;;;;;;;55.97;29.40;;;3.40;84.80;;;;;;5013223;28;20045;-81
2021/12/23 13:18:01;;;;;;;55.25;29.17;;;3.40;84.80;;;;;;5027731;28;20088;-81
2021/12/23 13:20:45;;;;;;;48.65;28.17;;;3.50;84.80;;;;;;5027175;28;20049;-79
2021/12/23 13:23:21;;;;;;;52.53;28.63;;;3.40;84.80;;;;;;5018072;28;20052;-81
2021/12/23 13:25:50;;;;;;;48.65;27.08;;;3.50;84.80;;;;;;5016915;28;20801;-80
2021/12/23 13:28:24;;;;;;;53.65;28.60;;;3.50;84.80;;;;;;5017241;28;20061;-80
2021/12/23 13:30:51;;;;;;;51.77;28.90;;;3.50;84.80;;;;;;5013368;28;20498;-80
2021/12/23 13:33:18;;;;;;;47.28;27.63;;;3.50;84.80;;;;;;5028959;28;20292;-80
2021/12/23 13:35:46;;;;;;;48.03;28.75;;;3.60;84.80;;;;;;5027983;28;20052;-80
2021/12/23 13:38:33;;;;;;;51.63;28.05;;;3.60;84.80;;;;;;5027995;28;20037;-80
2021/12/23 13:41:29;;;;;;;44.05;25.90;;;3.60;84.80;;;;;;5019252;28;20041;-80
2021/12/23 13:44:00;;;;;;;50.30;27.50;;;3.60;84.80;;;;;;5016583;28;20414;-80
2021/12/23 13:46:32;;;;;;;46.92;26.83;;;3.60;84.80;;;;;;5016103;28;20517;-80
2021/12/23 13:49:03;;;;;;;50.03;28.58;;;3.70;84.80;;;;;;5015534;28;20073;-80
2021/12/23 13:51:33;;;;;;;54.25;28.30;;;3.70;84.80;;;;;;5028366;28;20417;-80
2021/12/23 13:54:21;;;;;;;46.70;27.77;;;3.70;84.90;;;;;;5028046;28;20049;-79
2021/12/23 13:56:51;;;;;;;52.20;28.27;;;3.70;84.90;;;;;;5027753;28;20409;-81
2021/12/23 13:59:27;;;;;;;51.15;27.25;;;3.70;84.90;;;;;;5016540;28;20045;-80
2021/12/23 14:02:01;;;;;;;43.47;25.80;;;3.70;84.90;;;;;;5015944;28;20050;-80
2021/12/23 14:04:49;;;;;;;43.85;25.48;;;3.80;85.00;;;;;;5017891;28;20053;-82
2021/12/23 14:07:18;;;;;;;49.10;26.52;;;3.70;84.90;;;;;;5025111;28;20053;-81
2021/12/23 14:10:04;;;;;;;43.90;25.30;;;3.80;84.90;;;;;;5014807;28;20052;-81
2021/12/23 14:12:46;;;;;;;51.05;27.35;;;3.80;84.90;;;;;;5012850;28;20532;-80
2021/12/23 14:15:20;;;;;;;41.70;25.33;;;3.80;84.90;;;;;;5012679;28;20419;-81